Time;durP1;ratioP1;P1;durP2;ratioP2;P2;SDS_P1;SDS_P2;PMS_P1;PMS_P2;Temp;Humidity;BMP_temperature;BMP_pressure;BME280_temperature;BME280_humidity;BME280_pressure;Samples;Min_cycle;Max_cycle;Signal;HPM_P1;HPM_P2
2022/06/17 00:00:34;;;;;;;;;16.33;14.33;;;;;;;;5040410;28;46593;-67
2022/06/17 00:03:00;;;;;;;;;13.33;13.33;;;;;;;;5058673;28;45667;-67
2022/06/17 00:05:25;;;;;;;;;16.00;15.00;;;;;;;;5055013;28;45268;-68
2022/06/17 00:07:50;;;;;;;;;9.67;9.00;;;;;;;;5059705;28;45301;-67
2022/06/17 00:10:20;;;;;;;;;14.33;12.67;;;;;;;;5055036;28;45413;-68
2022/06/17 00:12:46;;;;;;;;;13.67;13.67;;;;;;;;5059531;28;46130;-67
2022/06/17 00:15:11;;;;;;;;;14.00;14.00;;;;;;;;5055689;28;45285;-68
2022/06/17 00:17:37;;;;;;;;;12.00;12.00;;;;;;;;5059805;28;45364;-68
2022/06/17 00:20:06;;;;;;;;;10.00;10.00;;;;;;;;5040000;28;45662;-68
2022/06/17 00:22:31;;;;;;;;;16.00;14.00;;;;;;;;5059885;28;45421;-68
2022/06/17 00:24:56;;;;;;;;;13.00;12.33;;;;;;;;5038795;28;45325;-67
2022/06/17 00:27:22;;;;;;;;;13.33;13.33;;;;;;;;5041975;28;45494;-68
2022/06/17 00:29:47;;;;;;;;;13.33;12.67;;;;;;;;5050129;28;45459;-68
2022/06/17 00:32:12;;;;;;;;;14.33;14.00;;;;;;;;5059083;28;45273;-67
2022/06/17 00:34:37;;;;;;;;;12.33;12.00;;;;;;;;5051639;28;45449;-68
2022/06/17 00:37:03;;;;;;;;;14.50;12.50;;;;;;;;5041596;28;45493;-67
2022/06/17 00:39:29;;;;;;;;;16.00;13.00;;;;;;;;5058301;28;45502;-68
2022/06/17 00:41:58;;;;;;;;;15.33;15.00;;;;;;;;5059472;28;45458;-68
2022/06/17 00:44:34;;;;;;;;;14.00;14.00;;;;;;;;5056509;28;45566;-68
2022/06/17 00:47:02;;;;;;;;;12.00;12.00;;;;;;;;5057880;28;45309;-68
2022/06/17 00:49:47;;;;;;;;;13.33;13.00;;;;;;;;5049195;28;45399;-68
2022/06/17 00:52:15;;;;;;;;;13.67;12.00;;;;;;;;5059149;28;45316;-68
2022/06/17 00:54:43;;;;;;;;;14.00;12.00;;;;;;;;5053660;28;45554;-67
2022/06/17 00:57:34;;;;;;;;;12.67;12.33;;;;;;;;5059688;28;45331;-68
2022/06/17 01:00:01;;;;;;;;;12.33;12.33;;;;;;;;5047616;28;45566;-68
2022/06/17 01:02:27;;;;;;;;;10.33;10.33;;;;;;;;5041439;28;47739;-68
2022/06/17 01:04:52;;;;;;;;;13.33;13.00;;;;;;;;5055891;28;45407;-68
2022/06/17 01:07:23;;;;;;;;;10.33;10.33;;;;;;;;5059218;28;45312;-68
2022/06/17 01:09:58;;;;;;;;;17.33;13.33;;;;;;;;5057200;28;45534;-68
2022/06/17 01:12:39;;;;;;;;;14.67;14.67;;;;;;;;5058025;28;46431;-68
2022/06/17 01:15:06;;;;;;;;;13.33;12.00;;;;;;;;5053769;28;45293;-67
2022/06/17 01:17:32;;;;;;;;;13.67;13.67;;;;;;;;5059181;28;45401;-68
2022/06/17 01:19:59;;;;;;;;;19.67;16.00;;;;;;;;5056231;28;45408;-68
2022/06/17 01:22:43;;;;;;;;;13.67;13.00;;;;;;;;5040700;28;47075;-68
2022/06/17 01:25:15;;;;;;;;;12.00;12.00;;;;;;;;5051472;28;45359;-68
2022/06/17 01:27:42;;;;;;;;;12.67;10.67;;;;;;;;5058825;28;45316;-68
2022/06/17 01:30:09;;;;;;;;;17.33;16.00;;;;;;;;5051331;28;45341;-68
2022/06/17 01:32:41;;;;;;;;;13.67;12.00;;;;;;;;5058819;28;45501;-68
2022/06/17 01:35:07;;;;;;;;;14.67;14.67;;;;;;;;5053212;28;45415;-68
2022/06/17 01:37:33;;;;;;;;;13.33;12.00;;;;;;;;5059184;28;45197;-68
2022/06/17 01:39:58;;;;;;;;;16.00;14.00;;;;;;;;5052080;28;45376;-68
2022/06/17 01:42:25;;;;;;;;;15.33;13.33;;;;;;;;5058629;28;46472;-68
2022/06/17 01:44:53;;;;;;;;;13.00;13.00;;;;;;;;5053607;28;45454;-68
2022/06/17 01:47:20;;;;;;;;;11.33;11.33;;;;;;;;5059291;28;45637;-68
2022/06/17 01:49:52;;;;;;;;;14.33;14.33;;;;;;;;5056091;28;45529;-68
2022/06/17 01:52:37;;;;;;;;;15.00;15.00;;;;;;;;5056722;28;46043;-68
2022/06/17 01:55:24;;;;;;;;;15.00;14.33;;;;;;;;5053917;28;45414;-68
2022/06/17 01:57:54;;;;;;;;;14.67;12.00;;;;;;;;5055602;28;45310;-68
2022/06/17 02:00:22;;;;;;;;;14.00;13.00;;;;;;;;5052543;28;45903;-68
2022/06/17 02:02:49;;;;;;;;;13.67;12.67;;;;;;;;5058432;28;46295;-67
2022/06/17 02:05:15;;;;;;;;;17.00;16.33;;;;;;;;5036261;28;45781;-68
2022/06/17 02:07:43;;;;;;;;;14.33;14.33;;;;;;;;5058494;28;45579;-68
2022/06/17 02:10:08;;;;;;;;;16.67;14.00;;;;;;;;5033450;28;45614;-67
2022/06/17 02:12:34;;;;;;;;;15.33;13.33;;;;;;;;5056900;28;46139;-68
2022/06/17 02:14:59;;;;;;;;;13.67;12.67;;;;;;;;5054550;28;45325;-67
2022/06/17 02:17:27;;;;;;;;;16.67;14.00;;;;;;;;5056602;28;45292;-67
2022/06/17 02:19:52;;;;;;;;;11.00;11.00;;;;;;;;5055758;28;45440;-68
2022/06/17 02:22:25;;;;;;;;;16.67;14.33;;;;;;;;5046885;28;45565;-67
2022/06/17 02:24:50;;;;;;;;;14.67;13.33;;;;;;;;5034950;28;45368;-69
2022/06/17 02:27:17;;;;;;;;;14.67;13.67;;;;;;;;5057471;28;45409;-68
2022/06/17 02:29:43;;;;;;;;;14.33;14.33;;;;;;;;5055905;28;45317;-68
2022/06/17 02:32:10;;;;;;;;;12.67;11.00;;;;;;;;5058434;28;45403;-68
2022/06/17 02:34:44;;;;;;;;;12.00;12.00;;;;;;;;5051664;28;45372;-68
2022/06/17 02:37:11;;;;;;;;;11.33;11.33;;;;;;;;5034806;28;45351;-68
2022/06/17 02:39:40;;;;;;;;;16.00;13.33;;;;;;;;5050021;28;45499;-68
2022/06/17 02:42:05;;;;;;;;;13.33;12.33;;;;;;;;5061561;28;45262;-67
2022/06/17 02:44:33;;;;;;;;;10.67;10.67;;;;;;;;5054743;28;45758;-67
2022/06/17 02:47:00;;;;;;;;;16.67;14.33;;;;;;;;5043509;28;45453;-67
2022/06/17 02:49:28;;;;;;;;;14.33;13.00;;;;;;;;5054898;28;45659;-68
2022/06/17 02:51:53;;;;;;;;;13.67;12.33;;;;;;;;5056976;28;45999;-68
2022/06/17 02:54:26;;;;;;;;;15.67;13.67;;;;;;;;5054345;28;45395;-67
2022/06/17 02:56:53;;;;;;;;;18.33;17.00;;;;;;;;5061539;28;45451;-67
2022/06/17 02:59:22;;;;;;;;;14.00;13.00;;;;;;;;5056789;28;45495;-67
2022/06/17 03:01:50;;;;;;;;;14.00;14.00;;;;;;;;5061051;28;45416;-68
2022/06/17 03:04:17;;;;;;;;;12.33;12.33;;;;;;;;5059103;28;45369;-67
2022/06/17 03:06:45;;;;;;;;;18.33;16.00;;;;;;;;5061184;28;45253;-67
2022/06/17 03:09:18;;;;;;;;;15.00;13.67;;;;;;;;5059199;28;45401;-68
2022/06/17 03:11:45;;;;;;;;;15.00;12.00;;;;;;;;5061057;28;46342;-67
2022/06/17 03:14:12;;;;;;;;;20.67;14.00;;;;;;;;5038672;28;45499;-67
2022/06/17 03:16:38;;;;;;;;;14.00;14.00;;;;;;;;5052638;28;45724;-68
2022/06/17 03:19:03;;;;;;;;;14.33;14.33;;;;;;;;5056940;28;45399;-67
2022/06/17 03:21:28;;;;;;;;;13.00;13.00;;;;;;;;5060847;28;46001;-68
2022/06/17 03:23:59;;;;;;;;;17.67;16.33;;;;;;;;5058919;28;45336;-67
2022/06/17 03:26:27;;;;;;;;;15.67;13.67;;;;;;;;5053022;28;45244;-68
2022/06/17 03:28:52;;;;;;;;;15.33;15.33;;;;;;;;5039267;28;46134;-67
2022/06/17 03:31:18;;;;;;;;;12.67;12.00;;;;;;;;5060750;28;45372;-68
2022/06/17 03:33:47;;;;;;;;;13.00;12.00;;;;;;;;5056455;28;45607;-67
2022/06/17 03:36:20;;;;;;;;;15.67;15.67;;;;;;;;5041514;28;45288;-67
2022/06/17 03:38:47;;;;;;;;;15.33;13.67;;;;;;;;5049306;28;45472;-67
2022/06/17 03:41:18;;;;;;;;;13.67;13.67;;;;;;;;5042149;28;46846;-67
2022/06/17 03:43:47;;;;;;;;;17.33;16.33;;;;;;;;5056867;28;45375;-67
2022/06/17 03:46:13;;;;;;;;;15.33;14.00;;;;;;;;5042059;28;45456;-68
2022/06/17 03:48:38;;;;;;;;;13.33;12.67;;;;;;;;5056588;28;45284;-67
2022/06/17 03:51:04;;;;;;;;;14.00;14.00;;;;;;;;5057735;28;46555;-68
2022/06/17 03:53:34;;;;;;;;;4.00;2.33;;;;;;;;5057512;28;45311;-68
2022/06/17 03:56:03;;;;;;;;;12.33;12.33;;;;;;;;5057148;28;45368;-68
2022/06/17 03:58:29;;;;;;;;;10.00;9.33;;;;;;;;5058099;28;45365;-68
2022/06/17 04:00:58;;;;;;;;;14.67;12.33;;;;;;;;5058453;28;46780;-68
2022/06/17 04:03:25;;;;;;;;;16.67;14.33;;;;;;;;5040213;28;46225;-67
2022/06/17 04:06:09;;;;;;;;;13.67;12.67;;;;;;;;5036969;28;45328;-68
2022/06/17 04:08:49;;;;;;;;;14.67;13.00;;;;;;;;5057923;28;45303;-69
2022/06/17 04:11:14;;;;;;;;;13.33;12.00;;;;;;;;5057920;28;45284;-68
2022/06/17 04:13:40;;;;;;;;;14.67;14.67;;;;;;;;5056294;28;45304;-68
2022/06/17 04:16:14;;;;;;;;;13.67;12.33;;;;;;;;5058284;28;45321;-68
2022/06/17 04:18:39;;;;;;;;;14.33;13.00;;;;;;;;5057742;28;45469;-68
2022/06/17 04:21:06;;;;;;;;;16.33;15.00;;;;;;;;5058794;28;45378;-68
2022/06/17 04:23:33;;;;;;;;;18.33;15.00;;;;;;;;5058122;28;45454;-68
2022/06/17 04:26:02;;;;;;;;;13.33;13.00;;;;;;;;5041619;28;45414;-68
2022/06/17 04:28:30;;;;;;;;;15.00;13.67;;;;;;;;5057672;28;45283;-68
2022/06/17 04:30:58;;;;;;;;;12.33;12.00;;;;;;;;5059522;28;46138;-68
2022/06/17 04:33:29;;;;;;;;;14.33;13.33;;;;;;;;5057108;28;45373;-68
2022/06/17 04:36:02;;;;;;;;;14.33;14.00;;;;;;;;5056081;28;45352;-68
2022/06/17 04:38:30;;;;;;;;;16.67;16.67;;;;;;;;5057945;28;45409;-68
2022/06/17 04:40:58;;;;;;;;;15.33;13.67;;;;;;;;5056491;28;46530;-68
2022/06/17 04:43:31;;;;;;;;;19.33;17.00;;;;;;;;5057607;28;45269;-68
2022/06/17 04:45:59;;;;;;;;;18.33;16.33;;;;;;;;5037991;28;45309;-68
2022/06/17 04:48:24;;;;;;;;;16.00;15.33;;;;;;;;5039491;28;46080;-68
2022/06/17 04:50:49;;;;;;;;;16.00;14.00;;;;;;;;5054627;28;46164;-68
2022/06/17 04:53:15;;;;;;;;;13.33;13.33;;;;;;;;5055401;28;45265;-68
2022/06/17 04:55:42;;;;;;;;;17.67;15.67;;;;;;;;5041236;28;45355;-68
2022/06/17 04:58:11;;;;;;;;;18.67;16.00;;;;;;;;5057548;28;45490;-68
2022/06/17 05:00:36;;;;;;;;;23.00;19.67;;;;;;;;5055684;28;45410;-68
2022/06/17 05:03:01;;;;;;;;;17.00;16.33;;;;;;;;5057012;28;45227;-68
2022/06/17 05:05:37;;;;;;;;;17.00;15.67;;;;;;;;5056692;28;45366;-68
2022/06/17 05:08:17;;;;;;;;;15.67;15.67;;;;;;;;5058432;28;45221;-69
2022/06/17 05:10:45;;;;;;;;;14.00;12.67;;;;;;;;5056036;28;45626;-68
2022/06/17 05:13:10;;;;;;;;;16.00;14.33;;;;;;;;5057058;28;45255;-70
2022/06/17 05:15:36;;;;;;;;;13.00;12.67;;;;;;;;5057537;28;45245;-69
2022/06/17 05:18:02;;;;;;;;;16.67;15.00;;;;;;;;5058720;28;45252;-68
2022/06/17 05:20:27;;;;;;;;;13.00;13.00;;;;;;;;5057208;28;46027;-68
2022/06/17 05:22:56;;;;;;;;;16.33;15.33;;;;;;;;5059527;28;45443;-69
2022/06/17 05:25:29;;;;;;;;;18.33;17.00;;;;;;;;5048344;28;45248;-69
2022/06/17 05:27:54;;;;;;;;;17.00;14.00;;;;;;;;5040344;28;45789;-69
2022/06/17 05:30:20;;;;;;;;;17.67;15.33;;;;;;;;5049617;28;48815;-69
2022/06/17 05:32:47;;;;;;;;;15.67;15.00;;;;;;;;5059251;28;45541;-69
2022/06/17 05:35:12;;;;;;;;;17.33;17.33;;;;;;;;5032786;28;45284;-69
2022/06/17 05:37:37;;;;;;;;;18.00;18.00;;;;;;;;5058778;28;45259;-69
2022/06/17 05:40:03;;;;;;;;;19.67;16.00;;;;;;;;5050686;28;45430;-69
2022/06/17 05:42:29;;;;;;;;;18.67;16.00;;;;;;;;5058466;28;45198;-69
2022/06/17 05:44:54;;;;;;;;;21.67;19.67;;;;;;;;5056403;28;45511;-69
2022/06/17 05:47:19;;;;;;;;;17.33;15.67;;;;;;;;5058165;28;45641;-69
2022/06/17 05:49:44;;;;;;;;;17.67;16.33;;;;;;;;5053084;28;45635;-69
2022/06/17 05:52:10;;;;;;;;;25.00;20.00;;;;;;;;5055067;28;45218;-69
2022/06/17 05:54:35;;;;;;;;;21.00;18.67;;;;;;;;5055208;28;45398;-68
2022/06/17 05:57:01;;;;;;;;;16.67;16.00;;;;;;;;5058789;28;45374;-68
2022/06/17 05:59:26;;;;;;;;;20.00;19.00;;;;;;;;5033560;28;47354;-68
2022/06/17 06:01:51;;;;;;;;;17.67;17.00;;;;;;;;5061262;28;45419;-68
2022/06/17 06:04:16;;;;;;;;;17.33;16.00;;;;;;;;5056478;28;45372;-68
2022/06/17 06:06:42;;;;;;;;;20.00;19.00;;;;;;;;5058338;28;45510;-68
2022/06/17 06:09:08;;;;;;;;;15.33;15.33;;;;;;;;5053383;28;46157;-68
2022/06/17 06:11:34;;;;;;;;;20.00;18.67;;;;;;;;5057805;28;45696;-68
2022/06/17 06:13:59;;;;;;;;;17.00;14.33;;;;;;;;5054688;28;45406;-70
2022/06/17 06:16:24;;;;;;;;;18.33;16.67;;;;;;;;5043105;28;46613;-68
2022/06/17 06:18:50;;;;;;;;;16.00;13.67;;;;;;;;5059282;28;45327;-69
2022/06/17 06:21:16;;;;;;;;;12.00;12.00;;;;;;;;5061864;28;45469;-68
2022/06/17 06:23:41;;;;;;;;;12.67;11.33;;;;;;;;5059964;28;45502;-68
2022/06/17 06:26:08;;;;;;;;;10.33;10.33;;;;;;;;5043439;28;46560;-68
2022/06/17 06:28:33;;;;;;;;;13.67;11.00;;;;;;;;5038985;28;46594;-69
2022/06/17 06:31:06;;;;;;;;;12.67;11.00;;;;;;;;5061005;28;45316;-68
2022/06/17 06:33:31;;;;;;;;;9.33;8.67;;;;;;;;5059810;28;45647;-70
2022/06/17 06:35:57;;;;;;;;;9.67;9.67;;;;;;;;5043338;28;47038;-68
2022/06/17 06:38:22;;;;;;;;;8.33;8.33;;;;;;;;5059827;28;46229;-68
2022/06/17 06:40:48;;;;;;;;;12.00;10.00;;;;;;;;5056933;28;45324;-68
2022/06/17 06:43:15;;;;;;;;;12.00;10.00;;;;;;;;5041134;28;45516;-69
2022/06/17 06:45:41;;;;;;;;;14.00;9.67;;;;;;;;5056800;28;45328;-68
2022/06/17 06:48:08;;;;;;;;;13.67;12.67;;;;;;;;5060157;28;45395;-68
2022/06/17 06:50:34;;;;;;;;;11.00;10.00;;;;;;;;5056229;28;45681;-68
2022/06/17 06:53:00;;;;;;;;;14.33;12.67;;;;;;;;5059612;28;45412;-68
2022/06/17 06:55:25;;;;;;;;;12.25;10.50;;;;;;;;5041093;28;45724;-68
2022/06/17 06:57:55;;;;;;;;;11.50;9.50;;;;;;;;5060720;28;45397;-68
2022/06/17 07:00:26;;;;;;;;;10.50;8.25;;;;;;;;5054298;28;45254;-67
2022/06/17 07:02:51;;;;;;;;;10.00;10.00;;;;;;;;5061025;28;45281;-68
2022/06/17 07:05:17;;;;;;;;;10.75;10.75;;;;;;;;5056329;28;45652;-68
2022/06/17 07:07:42;;;;;;;;;13.75;9.75;;;;;;;;5060814;28;45286;-68
2022/06/17 07:10:13;;;;;;;;;11.00;10.25;;;;;;;;5056879;28;45315;-68
2022/06/17 07:12:38;;;;;;;;;9.25;9.00;;;;;;;;5059701;28;45225;-69
2022/06/17 07:15:04;;;;;;;;;9.25;9.25;;;;;;;;5057636;28;45743;-68
2022/06/17 07:17:29;;;;;;;;;12.25;10.50;;;;;;;;5059068;28;46859;-68
2022/06/17 07:19:54;;;;;;;;;9.25;9.25;;;;;;;;5058333;28;45487;-68
2022/06/17 07:22:22;;;;;;;;;13.00;11.25;;;;;;;;5059616;28;45544;-68
2022/06/17 07:24:47;;;;;;;;;8.75;8.25;;;;;;;;5052990;28;45628;-68
2022/06/17 07:27:12;;;;;;;;;11.50;8.25;;;;;;;;5060333;28;46145;-68
2022/06/17 07:29:37;;;;;;;;;5.00;5.00;;;;;;;;5036773;28;45392;-69
2022/06/17 07:32:03;;;;;;;;;8.75;8.00;;;;;;;;5060636;28;45709;-68
2022/06/17 07:34:28;;;;;;;;;11.50;10.00;;;;;;;;5057412;28;45709;-68
2022/06/17 07:39:53;;;;;;;;;10.75;10.25;;;;;;;;5054173;28;45449;-69
2022/06/17 07:42:18;;;;;;;;;10.75;10.75;;;;;;;;5060612;28;45402;-69
2022/06/17 07:44:44;;;;;;;;;8.75;7.75;;;;;;;;5037417;28;45714;-69
2022/06/17 07:47:12;;;;;;;;;9.50;8.75;;;;;;;;5060338;28;45530;-68
2022/06/17 07:49:38;;;;;;;;;9.80;9.40;;;;;;;;5037404;28;45461;-70
2022/06/17 07:52:04;;;;;;;;;9.25;9.25;;;;;;;;5051313;28;45324;-71
2022/06/17 07:54:29;;;;;;;;;10.00;8.75;;;;;;;;5029004;28;47024;-69
2022/06/17 07:56:54;;;;;;;;;11.50;9.75;;;;;;;;5036716;28;45315;-70
2022/06/17 07:59:20;;;;;;;;;11.50;11.50;;;;;;;;5030270;28;45232;-69
2022/06/17 08:01:45;;;;;;;;;12.25;8.00;;;;;;;;5035228;28;45405;-69
2022/06/17 08:04:11;;;;;;;;;9.25;8.25;;;;;;;;5029918;28;45273;-69
2022/06/17 08:06:36;;;;;;;;;7.50;7.50;;;;;;;;5036012;28;45583;-71
2022/06/17 08:09:03;;;;;;;;;10.50;8.25;;;;;;;;5033617;28;45145;-70
2022/06/17 08:11:28;;;;;;;;;8.20;7.20;;;;;;;;5037384;28;45403;-70
2022/06/17 08:13:53;;;;;;;;;7.75;7.25;;;;;;;;5029506;28;45528;-68
2022/06/17 08:16:19;;;;;;;;;11.75;9.75;;;;;;;;5037514;28;45442;-70
2022/06/17 08:18:44;;;;;;;;;8.50;8.50;;;;;;;;5028972;28;45459;-70
2022/06/17 08:21:10;;;;;;;;;10.75;8.50;;;;;;;;5036853;28;45446;-70
2022/06/17 08:23:35;;;;;;;;;5.20;5.00;;;;;;;;5028372;28;45482;-70
2022/06/17 08:26:01;;;;;;;;;10.50;8.75;;;;;;;;5038858;28;46218;-70
2022/06/17 08:28:26;;;;;;;;;8.00;8.00;;;;;;;;5035979;28;45385;-70
2022/06/17 08:30:53;;;;;;;;;8.00;8.00;;;;;;;;5033668;28;45393;-70
2022/06/17 08:33:25;;;;;;;;;12.20;9.00;;;;;;;;5032620;28;45375;-69
2022/06/17 08:35:50;;;;;;;;;8.80;8.80;;;;;;;;5030987;28;45624;-68
2022/06/17 08:38:30;;;;;;;;;8.75;7.50;;;;;;;;5035353;28;45445;-69
2022/06/17 08:40:57;;;;;;;;;9.60;7.60;;;;;;;;5031558;28;45446;-69
2022/06/17 08:43:31;;;;;;;;;11.20;10.20;;;;;;;;5036823;28;45461;-69
2022/06/17 08:45:56;;;;;;;;;10.40;8.60;;;;;;;;5030445;28;45402;-70
2022/06/17 08:48:40;;;;;;;;;12.00;9.25;;;;;;;;5025815;28;45251;-70
2022/06/17 08:51:14;;;;;;;;;8.00;8.00;;;;;;;;5030462;28;45415;-70
2022/06/17 08:53:52;;;;;;;;;7.00;7.00;;;;;;;;5033229;28;45492;-70
2022/06/17 08:56:46;;;;;;;;;8.00;8.00;;;;;;;;5036527;28;47655;-70
2022/06/17 08:59:30;;;;;;;;;9.20;8.60;;;;;;;;4984012;28;45536;-70
2022/06/17 09:02:04;;;;;;;;;8.80;7.80;;;;;;;;5047990;28;45321;-70
2022/06/17 09:04:35;;;;;;;;;7.00;7.00;;;;;;;;5047440;28;45573;-70
2022/06/17 09:07:10;;;;;;;;;7.40;7.40;;;;;;;;5033347;28;46911;-69
2022/06/17 09:09:38;;;;;;;;;5.60;5.60;;;;;;;;5046846;28;45539;-70
2022/06/17 09:12:11;;;;;;;;;6.80;6.80;;;;;;;;5031373;28;45468;-68
2022/06/17 09:14:42;;;;;;;;;13.00;8.60;;;;;;;;5047207;28;45495;-70
2022/06/17 09:17:16;;;;;;;;;7.60;6.00;;;;;;;;5046280;28;45296;-70
2022/06/17 09:19:45;;;;;;;;;9.40;6.60;;;;;;;;5042658;28;45204;-70
2022/06/17 09:22:18;;;;;;;;;6.00;6.00;;;;;;;;5042943;28;45345;-69
2022/06/17 09:24:44;;;;;;;;;6.00;6.00;;;;;;;;5045481;28;45513;-70
2022/06/17 09:27:18;;;;;;;;;7.25;7.00;;;;;;;;5052662;28;46196;-70
2022/06/17 09:29:53;;;;;;;;;8.40;7.20;;;;;;;;5051060;28;45205;-70
2022/06/17 09:32:25;;;;;;;;;7.20;7.20;;;;;;;;5049266;28;45493;-70
2022/06/17 09:34:50;;;;;;;;;10.60;9.00;;;;;;;;5048800;28;45336;-70
2022/06/17 09:37:22;;;;;;;;;8.25;6.00;;;;;;;;5054453;28;45490;-70
2022/06/17 09:40:00;;;;;;;;;7.00;6.60;;;;;;;;5043593;28;45424;-69
2022/06/17 09:42:32;;;;;;;;;10.20;7.60;;;;;;;;5038924;28;45530;-69
2022/06/17 09:45:00;;;;;;;;;7.80;5.40;;;;;;;;5045555;28;45301;-70
2022/06/17 09:47:30;;;;;;;;;8.40;6.60;;;;;;;;5050826;28;45565;-70
2022/06/17 09:50:19;;;;;;;;;6.60;6.60;;;;;;;;5046175;28;45356;-69
2022/06/17 09:52:52;;;;;;;;;7.40;6.40;;;;;;;;5042698;28;45451;-69
2022/06/17 09:55:25;;;;;;;;;6.40;6.40;;;;;;;;5030186;28;47094;-69
2022/06/17 09:57:57;;;;;;;;;8.00;7.00;;;;;;;;5043772;28;45476;-70
2022/06/17 10:00:25;;;;;;;;;8.00;8.00;;;;;;;;5049481;28;45388;-69
2022/06/17 10:02:52;;;;;;;;;8.60;7.20;;;;;;;;5050919;28;45462;-70
2022/06/17 10:05:31;;;;;;;;;8.80;8.20;;;;;;;;5050044;28;45450;-70
2022/06/17 10:08:12;;;;;;;;;8.80;7.00;;;;;;;;5037949;28;45489;-70
2022/06/17 10:10:44;;;;;;;;;8.40;8.40;;;;;;;;5050635;28;45450;-70
2022/06/17 10:13:18;;;;;;;;;9.60;8.00;;;;;;;;5043228;28;45459;-69
2022/06/17 10:18:44;;;;;;;;;7.20;7.20;;;;;;;;5048302;28;45293;-69
2022/06/17 10:21:18;;;;;;;;;9.00;8.00;;;;;;;;5040566;28;45292;-70
2022/06/17 10:23:55;;;;;;;;;8.00;8.00;;;;;;;;5043895;28;45368;-70
2022/06/17 10:26:35;;;;;;;;;8.00;7.20;;;;;;;;5047205;28;45440;-69
2022/06/17 10:29:19;;;;;;;;;5.80;5.80;;;;;;;;5037778;28;46226;-69
2022/06/17 10:31:47;;;;;;;;;7.00;6.60;;;;;;;;5034430;28;45566;-69
2022/06/17 10:34:16;;;;;;;;;5.80;5.80;;;;;;;;5052411;28;45269;-67
2022/06/17 10:36:43;;;;;;;;;6.20;6.20;;;;;;;;5040405;28;45460;-70
2022/06/17 10:39:12;;;;;;;;;7.20;6.00;;;;;;;;5044834;28;46072;-69
2022/06/17 10:41:38;;;;;;;;;7.40;7.40;;;;;;;;5030394;28;45369;-69
2022/06/17 10:44:07;;;;;;;;;10.25;7.75;;;;;;;;5031596;28;45385;-69
2022/06/17 10:46:38;;;;;;;;;6.40;6.00;;;;;;;;5045433;28;45403;-69
2022/06/17 10:49:21;;;;;;;;;18.80;18.00;;;;;;;;5026763;28;47942;-69
2022/06/17 10:51:48;;;;;;;;;15.20;12.60;;;;;;;;5045463;28;45418;-70
2022/06/17 10:54:17;;;;;;;;;7.20;7.20;;;;;;;;5044471;28;45485;-69
2022/06/17 10:56:53;;;;;;;;;7.20;7.20;;;;;;;;5043314;28;45155;-70
2022/06/17 10:59:28;;;;;;;;;6.80;6.00;;;;;;;;5046312;28;45442;-69
2022/06/17 11:01:56;;;;;;;;;7.20;7.20;;;;;;;;5041555;28;45384;-68
2022/06/17 11:04:28;;;;;;;;;7.80;7.00;;;;;;;;5053857;28;45328;-69
2022/06/17 11:06:59;;;;;;;;;8.20;7.00;;;;;;;;5036482;28;46117;-69
2022/06/17 11:09:27;;;;;;;;;7.00;7.00;;;;;;;;5048571;28;45690;-69
2022/06/17 11:12:10;;;;;;;;;11.60;11.60;;;;;;;;5055050;28;45353;-69
2022/06/17 11:14:44;;;;;;;;;9.40;8.20;;;;;;;;5039299;28;45399;-69
2022/06/17 11:17:28;;;;;;;;;8.60;8.60;;;;;;;;5054976;28;45298;-69
2022/06/17 11:19:56;;;;;;;;;8.00;7.00;;;;;;;;5032081;28;47623;-69
2022/06/17 11:22:26;;;;;;;;;9.40;7.60;;;;;;;;5039745;28;45463;-70
2022/06/17 11:24:54;;;;;;;;;7.00;7.00;;;;;;;;5033864;28;45331;-69
2022/06/17 11:27:38;;;;;;;;;6.20;6.00;;;;;;;;5047984;28;45680;-69
2022/06/17 11:30:12;;;;;;;;;7.00;7.00;;;;;;;;5043805;28;46159;-69
2022/06/17 11:32:43;;;;;;;;;7.20;6.80;;;;;;;;5043230;28;45478;-70
2022/06/17 11:35:20;;;;;;;;;7.20;6.80;;;;;;;;5045510;28;45340;-69
2022/06/17 11:37:47;;;;;;;;;5.00;5.00;;;;;;;;5038281;28;46998;-69
2022/06/17 11:40:25;;;;;;;;;6.80;6.80;;;;;;;;5045973;28;46279;-70
2022/06/17 11:42:52;;;;;;;;;7.00;7.00;;;;;;;;5045536;28;45267;-69
2022/06/17 11:45:21;;;;;;;;;7.60;7.60;;;;;;;;5034483;28;46241;-69
2022/06/17 11:47:52;;;;;;;;;7.40;7.40;;;;;;;;5042298;28;45810;-69
2022/06/17 11:50:19;;;;;;;;;7.00;6.00;;;;;;;;5048792;28;45487;-69
2022/06/17 11:52:45;;;;;;;;;7.60;7.60;;;;;;;;5045404;28;45364;-69
2022/06/17 11:55:11;;;;;;;;;7.00;7.00;;;;;;;;5045772;28;45384;-68
2022/06/17 11:57:38;;;;;;;;;7.50;7.50;;;;;;;;5046245;28;45511;-69
2022/06/17 12:00:05;;;;;;;;;7.20;7.20;;;;;;;;5049731;28;45551;-69
2022/06/17 12:02:31;;;;;;;;;7.40;7.40;;;;;;;;5055977;28;45629;-69
2022/06/17 12:05:05;;;;;;;;;5.50;5.50;;;;;;;;5053931;28;45283;-69
2022/06/17 12:07:45;;;;;;;;;7.60;6.80;;;;;;;;5035020;28;45281;-69
2022/06/17 12:10:22;;;;;;;;;9.00;8.80;;;;;;;;5034612;28;47307;-70
2022/06/17 12:12:49;;;;;;;;;8.60;8.60;;;;;;;;5053379;28;45455;-69
2022/06/17 12:15:25;;;;;;;;;8.00;8.00;;;;;;;;5050766;28;45760;-68
2022/06/17 12:17:51;;;;;;;;;5.00;5.00;;;;;;;;5044914;28;45194;-69
2022/06/17 12:20:17;;;;;;;;;5.40;5.20;;;;;;;;5054739;28;46396;-69
2022/06/17 12:22:45;;;;;;;;;5.25;5.00;;;;;;;;5052073;28;45202;-69
2022/06/17 12:25:18;;;;;;;;;5.20;5.20;;;;;;;;5044879;28;45450;-69
2022/06/17 12:27:49;;;;;;;;;5.60;5.60;;;;;;;;5054187;28;45280;-69
2022/06/17 12:30:14;;;;;;;;;3.80;3.80;;;;;;;;5030334;28;46937;-69
2022/06/17 12:32:39;;;;;;;;;6.75;6.75;;;;;;;;5054718;28;45666;-69
2022/06/17 12:35:04;;;;;;;;;7.00;7.00;;;;;;;;5050873;28;45501;-68
2022/06/17 12:37:47;;;;;;;;;5.25;5.00;;;;;;;;5051298;28;45462;-69
2022/06/17 12:40:16;;;;;;;;;6.40;4.40;;;;;;;;5030971;28;46434;-69
2022/06/17 12:42:56;;;;;;;;;5.80;4.60;;;;;;;;5050817;28;46063;-69
2022/06/17 12:45:24;;;;;;;;;6.20;5.20;;;;;;;;5049620;28;45399;-69
2022/06/17 12:47:49;;;;;;;;;5.80;5.80;;;;;;;;5041244;28;46389;-69
2022/06/17 12:53:15;;;;;;;;;5.00;5.00;;;;;;;;5058792;28;45371;-69
2022/06/17 12:55:57;;;;;;;;;5.00;5.00;;;;;;;;5057832;28;45375;-70
2022/06/17 12:58:46;;;;;;;;;5.80;5.80;;;;;;;;5052083;28;45740;-69
2022/06/17 13:01:16;;;;;;;;;4.80;4.60;;;;;;;;5045889;28;45443;-69
2022/06/17 13:04:00;;;;;;;;;5.60;5.60;;;;;;;;5031006;28;45410;-69
2022/06/17 13:06:43;;;;;;;;;7.20;5.80;;;;;;;;5048851;28;45492;-69
2022/06/17 13:09:27;;;;;;;;;5.00;5.00;;;;;;;;5052464;28;45586;-69
2022/06/17 13:12:02;;;;;;;;;7.00;5.00;;;;;;;;5048920;28;45365;-69
2022/06/17 13:14:30;;;;;;;;;5.80;5.80;;;;;;;;5049926;28;45590;-69
2022/06/17 13:17:09;;;;;;;;;5.80;5.80;;;;;;;;5052721;28;45371;-69
2022/06/17 13:19:43;;;;;;;;;6.60;6.60;;;;;;;;5053416;28;45292;-69
2022/06/17 13:22:08;;;;;;;;;4.40;4.40;;;;;;;;5055300;28;45309;-68
2022/06/17 13:24:37;;;;;;;;;5.00;5.00;;;;;;;;5050008;28;45302;-69
2022/06/17 13:27:21;;;;;;;;;5.60;5.60;;;;;;;;5050302;28;45353;-69
2022/06/17 13:30:00;;;;;;;;;5.20;5.20;;;;;;;;5031864;28;45943;-68
2022/06/17 13:32:29;;;;;;;;;5.80;5.80;;;;;;;;5052559;28;46871;-69
2022/06/17 13:34:58;;;;;;;;;5.40;5.40;;;;;;;;5050543;28;45245;-69
2022/06/17 13:37:38;;;;;;;;;5.60;4.80;;;;;;;;5050841;28;45369;-69
2022/06/17 13:40:13;;;;;;;;;5.80;5.00;;;;;;;;5031152;28;45541;-71
2022/06/17 13:42:39;;;;;;;;;5.40;5.40;;;;;;;;5044152;28;46408;-70
2022/06/17 13:45:04;;;;;;;;;7.50;6.50;;;;;;;;5032287;28;45349;-70
2022/06/17 13:47:30;;;;;;;;;6.00;6.00;;;;;;;;5038722;28;45360;-70
2022/06/17 13:50:02;;;;;;;;;7.25;7.25;;;;;;;;5051813;28;45437;-70
2022/06/17 13:52:30;;;;;;;;;7.00;7.00;;;;;;;;5055604;28;45272;-71
2022/06/17 13:54:58;;;;;;;;;6.00;6.00;;;;;;;;5044001;28;45362;-70
2022/06/17 13:57:28;;;;;;;;;6.40;6.40;;;;;;;;5055254;28;45387;-70
2022/06/17 13:59:58;;;;;;;;;7.00;5.60;;;;;;;;5046958;28;45449;-70
2022/06/17 14:02:29;;;;;;;;;9.00;7.20;;;;;;;;5044409;28;45811;-70
2022/06/17 14:05:06;;;;;;;;;7.00;6.00;;;;;;;;5031073;28;45330;-70
2022/06/17 14:07:50;;;;;;;;;7.80;7.80;;;;;;;;5050420;28;45331;-71
2022/06/17 14:10:44;;;;;;;;;6.60;6.60;;;;;;;;5051589;28;45435;-70
2022/06/17 14:13:19;;;;;;;;;8.00;6.80;;;;;;;;5026979;28;45443;-69
2022/06/17 14:15:46;;;;;;;;;8.00;6.80;;;;;;;;5053746;28;45394;-70
2022/06/17 14:18:19;;;;;;;;;9.00;7.80;;;;;;;;5053065;28;45324;-69
2022/06/17 14:20:45;;;;;;;;;7.40;5.80;;;;;;;;5055975;28;45433;-70
2022/06/17 14:23:13;;;;;;;;;8.60;7.80;;;;;;;;5056845;28;46699;-70
2022/06/17 14:25:59;;;;;;;;;9.00;8.00;;;;;;;;5050681;28;45900;-70
2022/06/17 14:28:39;;;;;;;;;6.00;6.00;;;;;;;;5031999;28;45309;-69
2022/06/17 14:31:12;;;;;;;;;7.60;6.00;;;;;;;;5048629;28;45178;-70
2022/06/17 14:33:40;;;;;;;;;6.60;5.40;;;;;;;;5047394;28;46741;-70
2022/06/17 14:36:14;;;;;;;;;9.20;8.60;;;;;;;;5036599;28;45908;-70
2022/06/17 14:38:54;;;;;;;;;6.80;6.80;;;;;;;;5040888;28;45345;-69
2022/06/17 14:44:20;;;;;;;;;6.60;5.20;;;;;;;;5045331;28;45753;-70
2022/06/17 14:47:09;;;;;;;;;8.80;7.00;;;;;;;;5036241;28;45353;-70
2022/06/17 14:49:39;;;;;;;;;5.60;5.20;;;;;;;;5011432;28;45565;-69
2022/06/17 14:52:26;;;;;;;;;6.20;6.20;;;;;;;;5048924;28;46285;-69
2022/06/17 14:54:58;;;;;;;;;8.00;8.00;;;;;;;;5049346;28;46389;-70